.
WxDataArchive / Data Records for 2014-05-30
2014-05-29 May 2014 2014-05-31

Data Records for Friday, 30 May 2014

Time	Temp	Chill	HIndex	Humid	Dewpt	 Wind 	HiWind	WindDir	Rain 	Barom
-----	----	-----	------	-----	-----	------	------	-------	-----	-----
00:00	65.2	65.2	65.2	64	52.7	0	2	45	0.00	30.098 
00:05	64.8	64.8	64.8	64	52.3	0	1	45	0.00	30.098 
00:10	64.7	64.7	64.7	65	52.7	0	1	45	0.00	30.098 
00:15	64.5	64.5	64.5	65	52.5	0	1	45	0.00	30.096 
00:20	64.2	64.2	64.2	65	52.2	0	1	45	0.00	30.096 
00:25	63.9	63.9	63.9	66	52.3	0	2	45	0.00	30.096 
00:30	63.7	63.7	63.7	66	52.1	0	1	45	0.00	30.098 
00:35	63.4	63.4	63.4	67	52.2	0	1	45	0.00	30.098 
00:40	63.2	63.2	63.2	67	52.1	0	1	45	0.00	30.098 
00:45	63.1	63.1	63.1	68	52.4	0	1	45	0.00	30.098 
00:50	62.7	62.7	62.7	69	52.4	0	1	45	0.00	30.098 
00:55	62.6	62.6	62.6	69	52.3	0	1	45	0.00	30.098 
01:00	62.4	62.4	62.4	70	52.5	0	1	45	0.00	30.100 
01:05	62.1	62.1	62.1	70	52.2	0	1	45	0.00	30.100 
01:10	61.8	61.8	61.8	71	52.3	0	0	---	0.00	30.100 
01:15	61.6	61.6	61.6	72	52.5	0	0	---	0.00	30.099 
01:20	61.3	61.3	61.3	72	52.2	0	0	---	0.00	30.099 
01:25	61.2	61.2	61.2	73	52.5	0	0	---	0.00	30.099 
01:30	60.9	60.9	60.9	73	52.2	0	0	---	0.00	30.099 
01:35	60.5	60.5	60.5	74	52.2	0	1	45	0.00	30.099 
01:40	60.5	60.5	60.5	75	52.5	0	1	45	0.00	30.099 
01:45	60.5	60.5	60.5	75	52.5	0	2	45	0.00	30.099 
01:50	60.4	60.4	60.4	75	52.4	0	2	45	0.00	30.099 
01:55	60.4	60.4	60.4	75	52.4	0	2	45	0.00	30.099 
02:00	60.2	60.2	60.2	75	52.2	0	1	45	0.00	30.101 
02:05	60.2	60.2	60.2	75	52.2	0	1	45	0.00	30.101 
02:10	60.1	60.1	60.1	75	52.1	0	2	45	0.00	30.101 
02:15	59.9	59.9	59.9	75	52.0	0	1	45	0.00	30.101 
02:20	59.8	59.8	59.8	76	52.2	0	1	45	0.00	30.101 
02:25	59.6	59.6	59.6	76	52.0	0	2	45	0.00	30.101 
02:30	59.5	59.5	59.5	76	51.9	0	1	45	0.00	30.102 
02:35	59.3	59.3	59.3	76	51.7	0	1	45	0.00	30.102 
02:40	59.2	59.2	59.2	77	52.0	0	1	45	0.00	30.102 
02:45	59.2	59.2	59.2	77	52.0	0	1	45	0.00	30.105 
02:50	59.0	59.0	59.0	78	52.1	0	1	45	0.00	30.105 
02:55	58.7	58.7	58.7	78	51.9	0	0	---	0.00	30.105 
03:00	58.6	58.6	58.6	78	51.8	0	0	---	0.00	30.104 
03:05	58.3	58.3	58.3	79	51.8	0	0	---	0.00	30.104 
03:10	58.1	58.1	58.1	79	51.6	0	0	---	0.00	30.104 
03:15	57.8	57.8	57.8	80	51.7	0	0	---	0.00	30.100 
03:20	57.6	57.6	57.6	81	51.8	0	0	---	0.00	30.100 
03:25	57.5	57.5	57.5	81	51.7	0	0	---	0.00	30.100 
03:30	57.5	57.5	57.5	81	51.7	0	0	---	0.00	30.099 
03:35	57.3	57.3	57.3	81	51.5	0	1	45	0.00	30.099 
03:40	57.2	57.2	57.2	82	51.8	0	1	45	0.00	30.099 
03:45	57.3	57.3	57.3	82	51.9	0	1	45	0.00	30.100 
03:50	57.3	57.3	57.3	82	51.9	0	1	45	0.00	30.100 
03:55	57.2	57.2	57.2	82	51.8	0	0	---	0.00	30.100 
04:00	57.2	57.2	57.2	82	51.8	0	1	45	0.00	30.101 
04:05	57.2	57.2	57.2	83	52.1	0	2	45	0.00	30.101 
04:10	57.2	57.2	57.2	83	52.1	0	0	---	0.00	30.101 
04:15	57.0	57.0	57.0	83	51.9	0	3	45	0.00	30.102 
04:20	57.0	57.0	57.0	83	51.9	0	1	45	0.00	30.102 
04:25	56.9	56.9	56.9	83	51.8	0	0	---	0.00	30.102 
04:30	56.7	56.7	56.7	83	51.6	0	1	45	0.00	30.100 
04:35	56.6	56.6	56.6	84	51.8	0	1	45	0.00	30.100 
04:40	56.5	56.5	56.5	84	51.7	0	0	---	0.00	30.100 
04:45	56.3	56.3	56.3	84	51.5	0	0	---	0.00	30.100 
04:50	56.2	56.2	56.2	85	51.7	0	1	45	0.00	30.100 
04:55	56.2	56.2	56.2	85	51.7	0	0	---	0.00	30.100 
05:00	55.9	55.9	55.9	85	51.5	0	0	---	0.00	30.100 
05:05	55.7	55.7	55.7	85	51.3	0	0	---	0.00	30.100 
05:10	55.6	55.6	55.6	85	51.2	0	0	---	0.00	30.100 
05:15	55.4	55.4	55.4	86	51.3	0	0	---	0.00	30.098 
05:20	55.3	55.3	55.3	86	51.2	0	0	---	0.00	30.098 
05:25	55.0	55.0	55.0	86	50.9	0	0	---	0.00	30.098 
05:30	54.7	54.7	54.7	86	50.6	0	0	---	0.00	30.102 
05:35	54.5	54.5	54.5	87	50.7	0	0	---	0.00	30.102 
05:40	54.4	54.4	54.4	87	50.6	0	0	---	0.00	30.102 
05:45	54.2	54.2	54.2	88	50.7	0	0	---	0.00	30.104 
05:50	54.2	54.2	54.2	88	50.7	0	0	---	0.00	30.104 
05:55	54.1	54.1	54.1	88	50.6	0	0	---	0.00	30.104 
06:00	53.9	53.9	53.9	88	50.4	0	0	---	0.00	30.103 
06:05	53.9	53.9	53.9	88	50.4	0	0	---	0.00	30.103 
06:10	53.8	53.8	53.8	89	50.6	0	0	---	0.00	30.103 
06:15	53.6	53.6	53.6	89	50.4	0	0	---	0.00	30.108 
06:20	53.5	53.5	53.5	89	50.3	0	0	---	0.00	30.108 
06:25	53.5	53.5	53.5	89	50.3	0	0	---	0.00	30.108 
06:30	53.5	53.5	53.5	90	50.6	0	0	---	0.00	30.115 
06:35	53.5	53.5	53.5	90	50.6	0	0	---	0.00	30.115 
06:40	53.3	53.3	53.3	90	50.4	0	0	---	0.00	30.115 
06:45	53.3	53.3	53.3	90	50.4	0	0	---	0.00	30.123 
06:50	53.3	53.3	53.3	90	50.4	0	0	---	0.00	30.123 
06:55	53.3	53.3	53.3	91	50.7	0	0	---	0.00	30.123 
07:00	53.6	53.6	53.6	91	51.0	0	2	45	0.00	30.136 
07:05	53.9	53.9	53.9	91	51.3	0	0	---	0.00	30.136 
07:10	54.2	54.2	54.2	91	51.6	0	1	45	0.00	30.136 
07:15	54.5	54.5	54.5	92	52.2	0	1	45	0.00	30.142 
07:20	55.0	55.0	55.0	92	52.7	0	4	90	0.00	30.142 
07:25	55.6	55.6	55.6	91	53.0	1	4	90	0.00	30.142 
07:30	56.2	56.2	56.2	89	53.0	2	5	112	0.00	30.151 
07:35	56.7	56.7	56.7	87	52.9	1	4	112	0.00	30.151 
07:40	57.5	57.5	57.5	86	53.3	1	4	112	0.00	30.151 
07:45	58.0	58.0	58.0	84	53.2	1	3	112	0.00	30.156 
07:50	58.6	58.6	58.6	83	53.4	0	2	112	0.00	30.156 
07:55	59.0	59.0	59.0	82	53.5	1	3	112	0.00	30.156 
08:00	59.6	59.6	59.6	81	53.8	1	4	112	0.00	30.152 
08:05	60.1	60.1	60.1	80	53.9	1	5	112	0.00	30.152 
08:10	60.5	60.5	60.5	80	54.3	0	3	112	0.00	30.152 
08:15	60.9	60.9	60.9	77	53.6	2	4	112	0.00	30.161 
08:20	60.7	60.7	60.7	78	53.8	2	4	112	0.00	30.161 
08:25	60.9	60.9	60.9	78	54.0	1	4	112	0.00	30.161 
08:30	61.3	61.3	61.3	77	54.0	1	3	112	0.00	30.166 
08:35	61.5	61.5	61.5	76	53.9	2	5	112	0.00	30.166 
08:40	61.5	61.5	61.5	76	53.9	2	5	112	0.00	30.166 
08:45	61.8	61.8	61.8	76	54.1	1	5	112	0.00	30.170 
08:50	62.4	62.4	62.4	75	54.4	1	4	90	0.00	30.170 
08:55	63.2	63.2	63.2	74	54.8	0	2	90	0.00	30.170 
09:00	63.5	63.5	63.5	68	52.7	2	6	90	0.00	30.172 
09:05	63.9	63.9	63.9	72	54.7	1	5	90	0.00	30.172 
09:10	64.2	64.2	64.2	69	53.8	2	5	90	0.00	30.172 
09:15	64.5	64.5	64.5	69	54.1	2	7	90	0.00	30.176 
09:20	64.8	64.8	64.8	69	54.4	2	5	90	0.00	30.176 
09:25	65.2	65.2	65.2	68	54.4	2	5	112	0.00	30.176 
09:30	65.8	65.8	65.8	66	54.1	1	4	112	0.00	30.177 
09:35	66.4	66.4	66.4	65	54.3	1	4	112	0.00	30.177 
09:40	66.4	66.4	66.4	64	53.8	3	6	68	0.00	30.177 
09:45	66.8	66.8	66.8	63	53.8	2	5	68	0.00	30.177 
09:50	67.1	67.1	67.1	63	54.1	1	4	68	0.00	30.177 
09:55	67.6	67.6	67.6	62	54.1	1	3	90	0.00	30.177 
10:00	67.9	67.9	67.9	60	53.5	2	4	112	0.00	30.164 
10:05	68.4	68.4	68.4	61	54.4	1	7	112	0.00	30.164 
10:10	68.6	68.6	68.6	58	53.2	3	6	90	0.00	30.164 
10:15	68.9	68.9	68.9	58	53.5	2	4	90	0.00	30.169 
10:20	69.3	69.3	69.3	58	53.9	2	6	90	0.00	30.169 
10:25	69.8	69.8	69.8	57	53.9	1	5	90	0.00	30.169 
10:30	70.1	70.1	70.1	56	53.7	2	4	90	0.00	30.165 
10:35	70.4	70.4	70.4	55	53.4	1	6	90	0.00	30.165 
10:40	70.8	70.8	70.8	54	53.3	2	5	135	0.00	30.165 
10:45	71.1	71.1	71.1	55	54.1	1	4	90	0.00	30.163 
10:50	71.3	71.3	71.3	54	53.8	2	4	90	0.00	30.163 
10:55	70.9	70.9	70.9	53	52.9	2	5	90	0.00	30.163 
11:00	71.1	71.1	71.1	55	54.1	2	6	90	0.00	30.163 
11:05	71.6	71.6	71.6	52	53.0	2	4	90	0.00	30.163 
11:10	72.0	72.0	72.0	52	53.4	2	5	90	0.00	30.163 
11:15	72.0	72.0	72.0	52	53.4	2	4	90	0.00	30.163 
11:20	72.0	72.0	72.0	54	54.4	2	4	90	0.00	30.163 
11:25	72.3	72.3	72.3	51	53.1	1	4	90	0.00	30.163 
11:30	72.7	72.7	72.7	52	54.0	2	6	90	0.00	30.162 
11:35	73.0	73.0	73.0	49	52.7	2	6	90	0.00	30.162 
11:40	73.0	73.0	73.0	51	53.8	2	5	90	0.00	30.162 
11:45	73.0	73.0	73.0	50	53.2	2	6	90	0.00	30.163 
11:50	73.3	73.3	73.3	50	53.5	2	4	90	0.00	30.163 
11:55	73.9	73.9	73.9	47	52.4	2	5	90	0.00	30.163 
12:00	74.6	74.6	74.6	48	53.6	1	3	90	0.00	30.161 
12:05	75.3	75.3	77.7	46	53.1	1	4	90	0.00	30.161 
12:10	75.4	75.4	77.8	47	53.7	2	4	90	0.00	30.161 
12:15	75.6	75.6	77.8	45	52.7	1	5	90	0.00	30.161 
12:20	75.6	75.6	77.9	47	53.9	1	3	90	0.00	30.161 
12:25	75.6	75.6	77.8	46	53.3	1	4	90	0.00	30.161 
12:30	75.8	75.8	77.9	45	52.9	3	5	112	0.00	30.162 
12:35	75.4	75.4	77.8	46	53.2	2	5	90	0.00	30.162 
12:40	75.6	75.6	77.8	45	52.7	2	5	90	0.00	30.162 
12:45	76.1	76.1	78.1	48	55.0	1	4	90	0.00	30.160 
12:50	76.5	76.5	78.2	44	52.9	2	5	112	0.00	30.160 
12:55	76.3	76.3	78.1	46	54.0	3	7	90	0.00	30.160 
13:00	76.5	76.5	78.2	46	54.2	2	6	90	0.00	30.152 
13:05	76.3	76.3	78.1	46	54.0	3	6	68	0.00	30.152 
13:10	76.5	76.5	78.3	49	55.9	2	5	112	0.00	30.152 
13:15	76.8	76.8	78.4	46	54.4	2	7	90	0.00	30.152 
13:20	77.0	77.0	78.4	43	52.8	1	6	90	0.00	30.152 
13:25	77.0	77.0	78.4	43	52.8	2	6	112	0.00	30.152 
13:30	77.2	77.2	78.5	43	52.9	2	6	90	0.00	30.156 
13:35	77.2	77.2	78.5	44	53.6	2	6	90	0.00	30.156 
13:40	77.6	77.6	78.6	42	52.7	2	6	112	0.00	30.156 
13:45	77.7	77.7	78.7	43	53.4	1	5	90	0.00	30.149 
13:50	77.9	77.9	78.8	43	53.6	1	4	90	0.00	30.149 
13:55	78.3	78.3	79.0	42	53.3	1	4	90	0.00	30.149 
14:00	78.6	78.6	79.3	44	54.8	2	5	90	0.00	30.146 
14:05	78.6	78.6	79.0	40	52.2	2	5	112	0.00	30.146 
14:10	78.5	78.5	79.2	43	54.1	2	9	90	0.00	30.146 
14:15	79.0	79.0	79.4	42	53.9	2	5	90	0.00	30.141 
14:20	79.2	79.2	79.5	41	53.4	1	5	112	0.00	30.141 
14:25	79.8	79.8	79.9	41	54.0	1	4	90	0.00	30.141 
14:30	80.1	80.1	80.0	40	53.6	1	4	90	0.00	30.133 
14:35	79.9	79.9	79.7	38	52.0	3	7	112	0.00	30.133 
14:40	80.1	80.1	80.2	42	54.9	1	5	90	0.00	30.133 
14:45	79.9	79.9	79.6	37	51.3	2	6	90	0.00	30.133 
14:50	79.9	79.9	79.7	38	52.0	2	4	90	0.00	30.133 
14:55	79.9	79.9	79.8	39	52.7	3	6	90	0.00	30.133 
15:00	80.1	80.1	79.8	38	52.2	2	5	90	0.00	30.130 
15:05	80.7	80.7	80.2	37	52.0	2	6	90	0.00	30.130 
15:10	80.9	80.9	80.6	40	54.3	1	5	90	0.00	30.130 
15:15	81.1	81.1	80.3	35	50.8	2	6	90	0.00	30.127 
15:20	81.1	81.1	80.5	38	53.1	1	4	90	0.00	30.127 
15:25	81.2	81.2	80.4	36	51.7	2	5	90	0.00	30.127 
15:30	81.2	81.2	80.3	35	50.9	2	4	90	0.00	30.119 
15:35	81.4	81.4	80.5	35	51.1	1	4	90	0.00	30.119 
15:40	81.6	81.6	80.8	37	52.8	1	4	90	0.00	30.119 
15:45	81.8	81.8	80.7	34	50.7	2	4	90	0.00	30.118 
15:50	82.0	82.0	81.1	37	53.1	1	3	112	0.00	30.118 
15:55	82.2	82.2	81.3	37	53.3	1	3	90	0.00	30.118 
16:00	82.2	82.2	81.1	35	51.8	2	6	90	0.00	30.116 
16:05	82.2	82.2	81.1	35	51.8	1	4	112	0.00	30.116 
16:10	82.2	82.2	81.1	35	51.8	2	6	112	0.00	30.116 
16:15	81.8	81.8	80.9	36	52.2	2	6	90	0.00	30.112 
16:20	81.8	81.8	81.1	38	53.7	2	7	90	0.00	30.112 
16:25	82.0	82.0	81.5	40	55.3	1	5	90	0.00	30.112 
16:30	82.2	82.2	81.0	34	51.0	2	7	112	0.00	30.111 
16:35	82.2	82.2	81.3	37	53.3	1	5	112	0.00	30.111 
16:40	82.2	82.2	80.9	33	50.2	2	9	90	0.00	30.111 
16:45	82.0	82.0	81.0	36	52.4	2	4	68	0.00	30.108 
16:50	81.8	81.8	80.6	33	49.9	2	5	112	0.00	30.108 
16:55	82.0	82.0	81.0	36	52.4	2	4	90	0.00	30.108 
17:00	82.0	82.0	81.0	36	52.4	1	4	90	0.00	30.106 
17:05	82.0	82.0	81.0	36	52.4	2	5	90	0.00	30.106 
17:10	82.0	82.0	81.0	36	52.4	1	7	90	0.00	30.106 
17:15	82.0	82.0	81.1	37	53.1	2	6	112	0.00	30.109 
17:20	82.0	82.0	81.0	36	52.4	1	5	112	0.00	30.109 
17:25	82.2	82.2	81.1	35	51.8	2	6	112	0.00	30.109 
17:30	81.8	81.8	80.9	36	52.2	2	7	90	0.00	30.110 
17:35	81.8	81.8	80.9	36	52.2	1	3	68	0.00	30.110 
17:40	82.0	82.0	80.9	35	51.6	1	6	90	0.00	30.110 
17:45	81.8	81.8	81.1	38	53.7	1	4	90	0.00	30.106 
17:50	81.6	81.6	80.9	38	53.5	2	6	90	0.00	30.106 
17:55	81.4	81.4	80.8	38	53.3	2	5	90	0.00	30.106 
18:00	81.2	81.2	80.4	36	51.7	2	5	90	0.00	30.105 
18:05	81.2	81.2	80.5	37	52.4	2	6	112	0.00	30.105 
18:10	81.2	81.2	80.6	38	53.1	2	5	90	0.00	30.105 
18:15	81.1	81.1	80.4	36	51.6	2	4	90	0.00	30.103 
18:20	81.1	81.1	80.4	36	51.6	1	5	68	0.00	30.103 
18:25	81.1	81.1	80.4	37	52.3	1	4	90	0.00	30.103 
18:30	81.1	81.1	80.4	36	51.6	1	4	90	0.00	30.103 
18:35	80.9	80.9	80.1	35	50.7	2	4	90	0.00	30.103 
18:40	80.7	80.7	80.1	36	51.2	2	5	90	0.00	30.103 
18:45	80.5	80.5	79.9	36	51.1	2	6	90	0.00	30.103 
18:50	80.3	80.3	79.7	35	50.1	2	5	68	0.00	30.103 
18:55	80.1	80.1	79.6	35	50.0	2	4	68	0.00	30.103 
19:00	80.1	80.1	79.6	35	50.0	2	4	68	0.00	30.104 
19:05	79.9	79.9	79.5	35	49.8	2	5	68	0.00	30.104 
19:10	79.9	79.9	79.5	35	49.8	1	3	68	0.00	30.104 
19:15	79.8	79.8	79.4	35	49.7	1	4	68	0.00	30.098 
19:20	79.8	79.8	79.4	35	49.7	1	3	68	0.00	30.098 
19:25	79.6	79.6	79.4	36	50.3	1	4	68	0.00	30.098 
19:30	79.6	79.6	79.4	36	50.3	1	4	68	0.00	30.097 
19:35	79.4	79.4	79.2	36	50.1	2	5	68	0.00	30.097 
19:40	79.4	79.4	79.2	35	49.3	1	5	90	0.00	30.097 
19:45	79.2	79.2	79.0	34	48.4	1	4	90	0.00	30.099 
19:50	79.0	79.0	79.0	35	49.0	2	4	112	0.00	30.099 
19:55	78.8	78.8	78.8	35	48.8	1	4	112	0.00	30.099 
20:00	78.8	78.8	78.8	35	48.8	1	4	112	0.00	30.106 
20:05	78.6	78.6	78.7	35	48.6	1	3	112	0.00	30.106 
20:10	78.5	78.5	78.7	35	48.5	1	3	90	0.00	30.106 
20:15	78.3	78.3	78.6	36	49.1	1	2	90	0.00	30.107 
20:20	78.1	78.1	78.6	37	49.7	1	2	90	0.00	30.107 
20:25	77.9	77.9	78.6	38	50.2	0	2	90	0.00	30.107 
20:30	77.6	77.6	78.5	39	50.7	0	1	90	0.00	30.110 
20:35	77.4	77.4	78.4	39	50.5	0	2	90	0.00	30.110 
20:40	77.0	77.0	78.2	39	50.1	0	1	90	0.00	30.110 
20:45	76.7	76.7	78.1	39	49.9	0	1	90	0.00	30.112 
20:50	76.3	76.3	77.9	40	50.2	0	1	90	0.00	30.112 
20:55	76.0	76.0	77.8	40	49.9	0	1	90	0.00	30.112 
21:00	75.4	75.4	77.6	41	50.0	0	0	---	0.00	30.114 
21:05	75.1	75.1	77.6	42	50.4	0	1	90	0.00	30.114 
21:10	74.7	74.7	74.7	42	50.1	0	0	---	0.00	30.114 
21:15	74.4	74.4	74.4	43	50.4	0	0	---	0.00	30.114 
21:20	73.7	73.7	73.7	43	49.8	0	0	---	0.00	30.114 
21:25	73.2	73.2	73.2	44	50.0	0	0	---	0.00	30.114 
21:30	72.7	72.7	72.7	45	50.1	0	0	---	0.00	30.116 
21:35	72.3	72.3	72.3	46	50.3	0	0	---	0.00	30.116 
21:40	71.8	71.8	71.8	47	50.5	0	0	---	0.00	30.116 
21:45	71.5	71.5	71.5	48	50.8	0	0	---	0.00	30.119 
21:50	71.1	71.1	71.1	48	50.4	0	1	90	0.00	30.119 
21:55	70.9	70.9	70.9	48	50.2	0	1	90	0.00	30.119 
22:00	70.8	70.8	70.8	48	50.1	0	1	90	0.00	30.130 
22:05	70.6	70.6	70.6	47	49.4	0	1	90	0.00	30.130 
22:10	70.6	70.6	70.6	46	48.8	0	1	90	0.00	30.130 
22:15	70.8	70.8	70.8	46	49.0	0	1	90	0.00	30.134 
22:20	70.8	70.8	70.8	46	49.0	0	1	90	0.00	30.134 
22:25	70.8	70.8	70.8	46	49.0	0	1	90	0.00	30.134 
22:30	70.8	70.8	70.8	46	49.0	0	2	90	0.00	30.141 
22:35	70.6	70.6	70.6	46	48.8	1	3	90	0.00	30.141 
22:40	70.6	70.6	70.6	46	48.8	1	3	90	0.00	30.141 
22:45	70.4	70.4	70.4	47	49.2	1	3	90	0.00	30.144 
22:50	70.3	70.3	70.3	47	49.1	0	2	90	0.00	30.144 
22:55	69.9	69.9	69.9	48	49.3	0	2	90	0.00	30.144 
23:00	69.8	69.8	69.8	48	49.2	1	3	90	0.00	30.141 
23:05	69.4	69.4	69.4	49	49.4	0	2	90	0.00	30.141 
23:10	69.3	69.3	69.3	49	49.3	1	2	90	0.00	30.141 
23:15	69.1	69.1	69.1	50	49.7	0	2	90	0.00	30.140 
23:20	68.8	68.8	68.8	50	49.4	0	2	90	0.00	30.140 
23:25	68.6	68.6	68.6	50	49.2	0	1	90	0.00	30.140 
23:30	68.3	68.3	68.3	51	49.5	0	1	90	0.00	30.144 
23:35	68.1	68.1	68.1	51	49.3	0	0	---	0.00	30.144 
23:40	67.8	67.8	67.8	52	49.5	0	2	90	0.00	30.144 
23:45	67.6	67.6	67.6	52	49.3	0	1	90	0.00	30.143 
23:50	67.4	67.4	67.4	53	49.7	0	1	90	0.00	30.143 
23:55	67.3	67.3	67.3	53	49.6	0	1	90	0.00	30.143 

CoCoRaHS
IN-AL-39
A2 Web Hosting
Creative Commons License
GoDaddy
search engine by freefind advanced

loaded 2018-11-18 11:03:47 • last modified 2010-11-18 10:43:29
Privacy PolicyDisclaimer
• wx.awcolley.com is powered by PmWiki v.2002016 •
• all content (unless otherwise noted) © 2018 A W Colley